sensor_id;sensor_type;location;lat;lon;timestamp;P1;durP1;ratioP1;P2;durP2;ratioP2
29934;SDS011;19905;53.370;-6.314;2023-03-15T00:00:13;11.00;;;4.15;;
29934;SDS011;19905;53.370;-6.314;2023-03-15T00:02:42;10.70;;;4.32;;
29934;SDS011;19905;53.370;-6.314;2023-03-15T00:05:11;13.45;;;4.60;;
29934;SDS011;19905;53.370;-6.314;2023-03-15T00:07:40;11.55;;;4.20;;
29934;SDS011;19905;53.370;-6.314;2023-03-15T00:10:11;11.13;;;4.00;;
29934;SDS011;19905;53.370;-6.314;2023-03-15T00:12:39;12.45;;;3.95;;
29934;SDS011;19905;53.370;-6.314;2023-03-15T00:15:12;13.68;;;3.85;;
29934;SDS011;19905;53.370;-6.314;2023-03-15T00:17:44;12.90;;;4.47;;
29934;SDS011;19905;53.370;-6.314;2023-03-15T00:20:13;11.00;;;4.25;;
29934;SDS011;19905;53.370;-6.314;2023-03-15T00:22:42;11.57;;;3.63;;
29934;SDS011;19905;53.370;-6.314;2023-03-15T00:25:12;11.05;;;3.35;;
29934;SDS011;19905;53.370;-6.314;2023-03-15T00:27:41;11.48;;;3.35;;
29934;SDS011;19905;53.370;-6.314;2023-03-15T00:30:10;8.57;;;3.55;;
29934;SDS011;19905;53.370;-6.314;2023-03-15T00:32:39;9.05;;;3.28;;
29934;SDS011;19905;53.370;-6.314;2023-03-15T00:35:09;10.25;;;3.20;;
29934;SDS011;19905;53.370;-6.314;2023-03-15T00:37:40;12.68;;;3.35;;
29934;SDS011;19905;53.370;-6.314;2023-03-15T00:40:10;10.05;;;3.28;;
29934;SDS011;19905;53.370;-6.314;2023-03-15T00:42:41;15.27;;;4.22;;
29934;SDS011;19905;53.370;-6.314;2023-03-15T00:45:16;10.23;;;3.35;;
29934;SDS011;19905;53.370;-6.314;2023-03-15T00:47:48;7.82;;;3.17;;
29934;SDS011;19905;53.370;-6.314;2023-03-15T00:50:17;9.93;;;3.60;;
29934;SDS011;19905;53.370;-6.314;2023-03-15T00:52:47;11.88;;;3.45;;
29934;SDS011;19905;53.370;-6.314;2023-03-15T00:55:19;9.65;;;3.25;;
29934;SDS011;19905;53.370;-6.314;2023-03-15T00:57:48;9.43;;;3.45;;
29934;SDS011;19905;53.370;-6.314;2023-03-15T01:00:18;10.55;;;3.53;;
29934;SDS011;19905;53.370;-6.314;2023-03-15T01:02:56;10.77;;;3.78;;
29934;SDS011;19905;53.370;-6.314;2023-03-15T01:05:26;9.57;;;3.47;;
29934;SDS011;19905;53.370;-6.314;2023-03-15T01:07:56;8.80;;;3.80;;
29934;SDS011;19905;53.370;-6.314;2023-03-15T01:10:26;8.02;;;3.40;;
29934;SDS011;19905;53.370;-6.314;2023-03-15T01:12:55;10.77;;;3.90;;
29934;SDS011;19905;53.370;-6.314;2023-03-15T01:15:24;13.20;;;3.47;;
29934;SDS011;19905;53.370;-6.314;2023-03-15T01:17:54;9.27;;;3.35;;
29934;SDS011;19905;53.370;-6.314;2023-03-15T01:20:25;14.50;;;3.58;;
29934;SDS011;19905;53.370;-6.314;2023-03-15T01:22:54;10.18;;;3.95;;
29934;SDS011;19905;53.370;-6.314;2023-03-15T01:25:26;12.82;;;4.07;;
29934;SDS011;19905;53.370;-6.314;2023-03-15T01:27:56;11.43;;;3.90;;
29934;SDS011;19905;53.370;-6.314;2023-03-15T01:30:31;11.18;;;3.80;;
29934;SDS011;19905;53.370;-6.314;2023-03-15T01:33:01;9.30;;;3.60;;
29934;SDS011;19905;53.370;-6.314;2023-03-15T01:35:29;10.90;;;3.35;;
29934;SDS011;19905;53.370;-6.314;2023-03-15T01:38:00;8.70;;;3.50;;
29934;SDS011;19905;53.370;-6.314;2023-03-15T01:40:30;9.23;;;3.67;;
29934;SDS011;19905;53.370;-6.314;2023-03-15T01:43:16;10.73;;;4.13;;
29934;SDS011;19905;53.370;-6.314;2023-03-15T01:48:44;11.68;;;3.70;;
29934;SDS011;19905;53.370;-6.314;2023-03-15T01:51:21;11.05;;;3.72;;
29934;SDS011;19905;53.370;-6.314;2023-03-15T01:53:58;9.25;;;3.72;;
29934;SDS011;19905;53.370;-6.314;2023-03-15T01:59:06;12.60;;;3.72;;
29934;SDS011;19905;53.370;-6.314;2023-03-15T02:01:38;13.68;;;4.35;;
29934;SDS011;19905;53.370;-6.314;2023-03-15T02:04:14;11.40;;;4.10;;
29934;SDS011;19905;53.370;-6.314;2023-03-15T02:06:51;9.18;;;4.05;;
29934;SDS011;19905;53.370;-6.314;2023-03-15T02:09:25;7.90;;;3.92;;
29934;SDS011;19905;53.370;-6.314;2023-03-15T02:12:01;10.30;;;3.55;;
29934;SDS011;19905;53.370;-6.314;2023-03-15T02:14:31;9.93;;;4.13;;
29934;SDS011;19905;53.370;-6.314;2023-03-15T02:17:01;12.43;;;3.72;;
29934;SDS011;19905;53.370;-6.314;2023-03-15T02:19:34;13.45;;;4.10;;
29934;SDS011;19905;53.370;-6.314;2023-03-15T02:22:16;10.60;;;4.40;;
29934;SDS011;19905;53.370;-6.314;2023-03-15T02:24:55;12.05;;;4.45;;
29934;SDS011;19905;53.370;-6.314;2023-03-15T02:27:32;16.52;;;4.78;;
29934;SDS011;19905;53.370;-6.314;2023-03-15T02:30:06;13.32;;;4.40;;
29934;SDS011;19905;53.370;-6.314;2023-03-15T02:35:30;13.80;;;5.40;;
29934;SDS011;19905;53.370;-6.314;2023-03-15T02:38:08;12.40;;;5.65;;
29934;SDS011;19905;53.370;-6.314;2023-03-15T02:40:44;11.45;;;5.13;;
29934;SDS011;19905;53.370;-6.314;2023-03-15T02:43:17;9.98;;;4.20;;
29934;SDS011;19905;53.370;-6.314;2023-03-15T02:45:52;14.05;;;5.30;;
29934;SDS011;19905;53.370;-6.314;2023-03-15T02:48:22;9.18;;;4.15;;
29934;SDS011;19905;53.370;-6.314;2023-03-15T02:50:51;13.93;;;4.88;;
29934;SDS011;19905;53.370;-6.314;2023-03-15T02:53:21;15.82;;;4.78;;
29934;SDS011;19905;53.370;-6.314;2023-03-15T02:55:50;14.50;;;4.68;;
29934;SDS011;19905;53.370;-6.314;2023-03-15T02:58:20;9.82;;;4.45;;
29934;SDS011;19905;53.370;-6.314;2023-03-15T03:01:01;10.93;;;4.40;;
29934;SDS011;19905;53.370;-6.314;2023-03-15T03:03:38;9.48;;;4.38;;
29934;SDS011;19905;53.370;-6.314;2023-03-15T03:06:07;12.85;;;4.53;;
29934;SDS011;19905;53.370;-6.314;2023-03-15T03:08:44;9.45;;;4.53;;
29934;SDS011;19905;53.370;-6.314;2023-03-15T03:11:15;10.70;;;4.63;;
29934;SDS011;19905;53.370;-6.314;2023-03-15T03:13:46;8.50;;;4.40;;
29934;SDS011;19905;53.370;-6.314;2023-03-15T03:16:14;11.15;;;5.10;;
29934;SDS011;19905;53.370;-6.314;2023-03-15T03:18:43;10.77;;;4.85;;
29934;SDS011;19905;53.370;-6.314;2023-03-15T03:21:12;12.40;;;4.63;;
29934;SDS011;19905;53.370;-6.314;2023-03-15T03:23:40;10.38;;;4.50;;
29934;SDS011;19905;53.370;-6.314;2023-03-15T03:26:12;11.40;;;4.78;;
29934;SDS011;19905;53.370;-6.314;2023-03-15T03:28:43;12.20;;;4.65;;
29934;SDS011;19905;53.370;-6.314;2023-03-15T03:31:16;13.70;;;4.50;;
29934;SDS011;19905;53.370;-6.314;2023-03-15T03:33:54;14.15;;;4.70;;
29934;SDS011;19905;53.370;-6.314;2023-03-15T03:36:23;10.20;;;4.70;;
29934;SDS011;19905;53.370;-6.314;2023-03-15T03:38:53;12.88;;;4.95;;
29934;SDS011;19905;53.370;-6.314;2023-03-15T03:41:22;11.77;;;5.20;;
29934;SDS011;19905;53.370;-6.314;2023-03-15T03:43:53;11.63;;;5.20;;
29934;SDS011;19905;53.370;-6.314;2023-03-15T03:46:22;11.75;;;4.88;;
29934;SDS011;19905;53.370;-6.314;2023-03-15T03:48:50;11.48;;;4.93;;
29934;SDS011;19905;53.370;-6.314;2023-03-15T03:51:19;11.88;;;5.03;;
29934;SDS011;19905;53.370;-6.314;2023-03-15T03:53:47;14.38;;;5.07;;
29934;SDS011;19905;53.370;-6.314;2023-03-15T03:56:16;16.75;;;5.30;;
29934;SDS011;19905;53.370;-6.314;2023-03-15T03:58:46;10.40;;;5.00;;
29934;SDS011;19905;53.370;-6.314;2023-03-15T04:01:16;15.90;;;5.72;;
29934;SDS011;19905;53.370;-6.314;2023-03-15T04:03:45;12.57;;;5.13;;
29934;SDS011;19905;53.370;-6.314;2023-03-15T04:06:14;13.52;;;5.97;;
29934;SDS011;19905;53.370;-6.314;2023-03-15T04:08:42;15.18;;;6.03;;
29934;SDS011;19905;53.370;-6.314;2023-03-15T04:11:11;16.88;;;6.65;;
29934;SDS011;19905;53.370;-6.314;2023-03-15T04:13:43;16.15;;;6.43;;
29934;SDS011;19905;53.370;-6.314;2023-03-15T04:16:13;12.05;;;5.80;;
29934;SDS011;19905;53.370;-6.314;2023-03-15T04:18:44;13.02;;;6.13;;
29934;SDS011;19905;53.370;-6.314;2023-03-15T04:21:15;18.08;;;5.80;;
29934;SDS011;19905;53.370;-6.314;2023-03-15T04:23:50;12.18;;;6.07;;
29934;SDS011;19905;53.370;-6.314;2023-03-15T04:26:27;12.73;;;6.22;;
29934;SDS011;19905;53.370;-6.314;2023-03-15T04:28:57;14.93;;;5.40;;
29934;SDS011;19905;53.370;-6.314;2023-03-15T04:31:27;14.85;;;6.20;;
29934;SDS011;19905;53.370;-6.314;2023-03-15T04:34:03;13.98;;;5.95;;
29934;SDS011;19905;53.370;-6.314;2023-03-15T04:36:32;15.30;;;6.10;;
29934;SDS011;19905;53.370;-6.314;2023-03-15T04:41:33;12.52;;;5.53;;
29934;SDS011;19905;53.370;-6.314;2023-03-15T04:44:02;13.13;;;5.55;;
29934;SDS011;19905;53.370;-6.314;2023-03-15T04:46:32;13.65;;;5.90;;
29934;SDS011;19905;53.370;-6.314;2023-03-15T04:49:08;13.10;;;6.00;;
29934;SDS011;19905;53.370;-6.314;2023-03-15T04:51:44;14.93;;;5.95;;
29934;SDS011;19905;53.370;-6.314;2023-03-15T04:54:14;10.95;;;5.75;;
29934;SDS011;19905;53.370;-6.314;2023-03-15T04:56:43;12.00;;;5.80;;
29934;SDS011;19905;53.370;-6.314;2023-03-15T04:59:12;14.98;;;6.30;;
29934;SDS011;19905;53.370;-6.314;2023-03-15T05:01:42;14.45;;;6.20;;
29934;SDS011;19905;53.370;-6.314;2023-03-15T05:04:13;13.15;;;6.15;;
29934;SDS011;19905;53.370;-6.314;2023-03-15T05:06:42;15.23;;;6.35;;
29934;SDS011;19905;53.370;-6.314;2023-03-15T05:09:11;15.15;;;6.00;;
29934;SDS011;19905;53.370;-6.314;2023-03-15T05:11:45;14.32;;;6.25;;
29934;SDS011;19905;53.370;-6.314;2023-03-15T05:14:13;15.82;;;6.35;;
29934;SDS011;19905;53.370;-6.314;2023-03-15T05:16:44;13.85;;;6.22;;
29934;SDS011;19905;53.370;-6.314;2023-03-15T05:19:15;18.23;;;5.90;;
29934;SDS011;19905;53.370;-6.314;2023-03-15T05:21:43;12.65;;;5.78;;
29934;SDS011;19905;53.370;-6.314;2023-03-15T05:24:12;14.15;;;6.18;;
29934;SDS011;19905;53.370;-6.314;2023-03-15T05:26:42;15.18;;;6.40;;
29934;SDS011;19905;53.370;-6.314;2023-03-15T05:29:12;17.35;;;6.07;;
29934;SDS011;19905;53.370;-6.314;2023-03-15T05:31:47;16.98;;;6.18;;
29934;SDS011;19905;53.370;-6.314;2023-03-15T05:34:20;14.23;;;5.68;;
29934;SDS011;19905;53.370;-6.314;2023-03-15T05:36:49;14.13;;;6.47;;
29934;SDS011;19905;53.370;-6.314;2023-03-15T05:39:20;13.23;;;6.57;;
29934;SDS011;19905;53.370;-6.314;2023-03-15T05:41:49;13.35;;;5.95;;
29934;SDS011;19905;53.370;-6.314;2023-03-15T05:44:20;14.50;;;6.15;;
29934;SDS011;19905;53.370;-6.314;2023-03-15T05:46:49;15.10;;;6.00;;
29934;SDS011;19905;53.370;-6.314;2023-03-15T05:49:20;14.20;;;6.00;;
29934;SDS011;19905;53.370;-6.314;2023-03-15T05:51:52;17.40;;;6.03;;
29934;SDS011;19905;53.370;-6.314;2023-03-15T05:54:21;15.95;;;5.75;;
29934;SDS011;19905;53.370;-6.314;2023-03-15T05:56:49;11.30;;;5.70;;
29934;SDS011;19905;53.370;-6.314;2023-03-15T05:59:18;15.18;;;5.88;;
29934;SDS011;19905;53.370;-6.314;2023-03-15T06:01:46;12.30;;;5.95;;
29934;SDS011;19905;53.370;-6.314;2023-03-15T06:06:52;15.30;;;6.22;;
29934;SDS011;19905;53.370;-6.314;2023-03-15T06:09:21;13.73;;;6.07;;
29934;SDS011;19905;53.370;-6.314;2023-03-15T06:11:49;11.95;;;5.78;;
29934;SDS011;19905;53.370;-6.314;2023-03-15T06:16:50;17.63;;;7.03;;
29934;SDS011;19905;53.370;-6.314;2023-03-15T06:19:19;20.10;;;6.05;;
29934;SDS011;19905;53.370;-6.314;2023-03-15T06:21:50;14.75;;;6.30;;
29934;SDS011;19905;53.370;-6.314;2023-03-15T06:24:19;14.15;;;5.82;;
29934;SDS011;19905;53.370;-6.314;2023-03-15T06:26:47;12.95;;;5.93;;
29934;SDS011;19905;53.370;-6.314;2023-03-15T06:29:16;14.80;;;5.80;;
29934;SDS011;19905;53.370;-6.314;2023-03-15T06:31:44;13.43;;;5.60;;
29934;SDS011;19905;53.370;-6.314;2023-03-15T06:36:48;14.35;;;5.80;;
29934;SDS011;19905;53.370;-6.314;2023-03-15T06:39:20;14.30;;;5.20;;
29934;SDS011;19905;53.370;-6.314;2023-03-15T06:41:50;10.90;;;5.35;;
29934;SDS011;19905;53.370;-6.314;2023-03-15T06:44:24;15.05;;;5.32;;
29934;SDS011;19905;53.370;-6.314;2023-03-15T06:46:52;15.90;;;5.28;;
29934;SDS011;19905;53.370;-6.314;2023-03-15T06:49:21;16.80;;;5.40;;
29934;SDS011;19905;53.370;-6.314;2023-03-15T06:51:50;14.43;;;4.65;;
29934;SDS011;19905;53.370;-6.314;2023-03-15T06:54:21;11.85;;;5.10;;
29934;SDS011;19905;53.370;-6.314;2023-03-15T06:56:49;14.23;;;4.75;;
29934;SDS011;19905;53.370;-6.314;2023-03-15T06:59:18;14.00;;;5.07;;
29934;SDS011;19905;53.370;-6.314;2023-03-15T07:01:47;14.23;;;5.35;;
29934;SDS011;19905;53.370;-6.314;2023-03-15T07:04:17;14.82;;;5.30;;
29934;SDS011;19905;53.370;-6.314;2023-03-15T07:06:45;16.33;;;4.53;;
29934;SDS011;19905;53.370;-6.314;2023-03-15T07:09:14;13.23;;;3.97;;
29934;SDS011;19905;53.370;-6.314;2023-03-15T07:11:44;12.02;;;3.95;;
29934;SDS011;19905;53.370;-6.314;2023-03-15T07:14:13;12.93;;;5.00;;
29934;SDS011;19905;53.370;-6.314;2023-03-15T07:16:41;11.45;;;3.63;;
29934;SDS011;19905;53.370;-6.314;2023-03-15T07:19:10;7.47;;;3.22;;
29934;SDS011;19905;53.370;-6.314;2023-03-15T07:21:38;9.98;;;3.78;;
29934;SDS011;19905;53.370;-6.314;2023-03-15T07:24:07;10.02;;;3.60;;
29934;SDS011;19905;53.370;-6.314;2023-03-15T07:26:35;11.07;;;3.80;;
29934;SDS011;19905;53.370;-6.314;2023-03-15T07:29:06;16.05;;;4.30;;
29934;SDS011;19905;53.370;-6.314;2023-03-15T07:31:34;8.32;;;2.92;;
29934;SDS011;19905;53.370;-6.314;2023-03-15T07:34:03;10.57;;;2.63;;
29934;SDS011;19905;53.370;-6.314;2023-03-15T07:36:34;7.30;;;2.72;;
29934;SDS011;19905;53.370;-6.314;2023-03-15T07:39:03;8.63;;;2.20;;
29934;SDS011;19905;53.370;-6.314;2023-03-15T07:41:32;7.47;;;2.55;;
29934;SDS011;19905;53.370;-6.314;2023-03-15T07:44:01;11.95;;;1.90;;
29934;SDS011;19905;53.370;-6.314;2023-03-15T07:46:31;8.13;;;2.03;;
29934;SDS011;19905;53.370;-6.314;2023-03-15T07:49:01;10.00;;;1.77;;
29934;SDS011;19905;53.370;-6.314;2023-03-15T07:51:29;13.65;;;2.20;;
29934;SDS011;19905;53.370;-6.314;2023-03-15T07:53:58;7.13;;;2.10;;
29934;SDS011;19905;53.370;-6.314;2023-03-15T07:56:26;7.45;;;2.03;;
29934;SDS011;19905;53.370;-6.314;2023-03-15T07:58:55;8.65;;;2.42;;
29934;SDS011;19905;53.370;-6.314;2023-03-15T08:01:24;7.35;;;1.90;;
29934;SDS011;19905;53.370;-6.314;2023-03-15T08:03:54;13.15;;;2.00;;
29934;SDS011;19905;53.370;-6.314;2023-03-15T08:06:23;9.00;;;2.08;;
29934;SDS011;19905;53.370;-6.314;2023-03-15T08:08:52;6.93;;;2.17;;
29934;SDS011;19905;53.370;-6.314;2023-03-15T08:11:20;7.82;;;2.30;;
29934;SDS011;19905;53.370;-6.314;2023-03-15T08:13:48;6.97;;;1.92;;
29934;SDS011;19905;53.370;-6.314;2023-03-15T08:16:17;7.60;;;1.70;;
29934;SDS011;19905;53.370;-6.314;2023-03-15T08:18:46;7.85;;;2.00;;
29934;SDS011;19905;53.370;-6.314;2023-03-15T08:21:16;8.40;;;2.38;;
29934;SDS011;19905;53.370;-6.314;2023-03-15T08:23:45;14.00;;;2.25;;
29934;SDS011;19905;53.370;-6.314;2023-03-15T08:26:13;8.30;;;2.25;;
29934;SDS011;19905;53.370;-6.314;2023-03-15T08:28:42;10.82;;;2.60;;
29934;SDS011;19905;53.370;-6.314;2023-03-15T08:31:10;9.57;;;2.08;;
29934;SDS011;19905;53.370;-6.314;2023-03-15T08:33:39;10.90;;;2.42;;
29934;SDS011;19905;53.370;-6.314;2023-03-15T08:36:08;9.13;;;2.30;;
29934;SDS011;19905;53.370;-6.314;2023-03-15T08:38:38;11.73;;;2.60;;
29934;SDS011;19905;53.370;-6.314;2023-03-15T08:41:08;17.40;;;2.95;;
29934;SDS011;19905;53.370;-6.314;2023-03-15T08:43:36;19.58;;;3.10;;
29934;SDS011;19905;53.370;-6.314;2023-03-15T08:46:05;14.55;;;2.70;;
29934;SDS011;19905;53.370;-6.314;2023-03-15T08:48:34;11.90;;;2.97;;
29934;SDS011;19905;53.370;-6.314;2023-03-15T08:51:03;11.15;;;2.80;;
29934;SDS011;19905;53.370;-6.314;2023-03-15T08:53:34;12.52;;;3.22;;
29934;SDS011;19905;53.370;-6.314;2023-03-15T08:56:06;8.30;;;2.88;;
29934;SDS011;19905;53.370;-6.314;2023-03-15T08:58:35;10.40;;;2.90;;
29934;SDS011;19905;53.370;-6.314;2023-03-15T09:01:03;7.90;;;3.10;;
29934;SDS011;19905;53.370;-6.314;2023-03-15T09:03:32;10.27;;;2.67;;
29934;SDS011;19905;53.370;-6.314;2023-03-15T09:06:01;10.10;;;2.80;;
29934;SDS011;19905;53.370;-6.314;2023-03-15T09:08:30;9.68;;;2.78;;
29934;SDS011;19905;53.370;-6.314;2023-03-15T09:10:59;14.60;;;3.53;;
29934;SDS011;19905;53.370;-6.314;2023-03-15T09:13:31;16.15;;;4.30;;
29934;SDS011;19905;53.370;-6.314;2023-03-15T09:16:00;15.05;;;4.97;;
29934;SDS011;19905;53.370;-6.314;2023-03-15T09:18:29;27.55;;;7.55;;
29934;SDS011;19905;53.370;-6.314;2023-03-15T09:20:59;21.38;;;7.35;;
29934;SDS011;19905;53.370;-6.314;2023-03-15T09:23:28;22.55;;;6.28;;
29934;SDS011;19905;53.370;-6.314;2023-03-15T09:25:57;6.88;;;3.03;;
29934;SDS011;19905;53.370;-6.314;2023-03-15T09:28:26;8.88;;;2.22;;
29934;SDS011;19905;53.370;-6.314;2023-03-15T09:30:56;12.38;;;2.75;;
29934;SDS011;19905;53.370;-6.314;2023-03-15T09:33:26;12.93;;;2.78;;
29934;SDS011;19905;53.370;-6.314;2023-03-15T09:35:55;12.40;;;3.00;;
29934;SDS011;19905;53.370;-6.314;2023-03-15T09:38:24;19.17;;;5.75;;
29934;SDS011;19905;53.370;-6.314;2023-03-15T09:40:54;14.88;;;5.50;;
29934;SDS011;19905;53.370;-6.314;2023-03-15T09:46:26;12.52;;;4.18;;
29934;SDS011;19905;53.370;-6.314;2023-03-15T09:49:00;9.52;;;3.72;;
29934;SDS011;19905;53.370;-6.314;2023-03-15T09:51:37;9.07;;;3.30;;
29934;SDS011;19905;53.370;-6.314;2023-03-15T09:54:10;6.05;;;2.63;;
29934;SDS011;19905;53.370;-6.314;2023-03-15T09:56:47;13.07;;;3.08;;
29934;SDS011;19905;53.370;-6.314;2023-03-15T09:59:20;7.28;;;2.35;;
29934;SDS011;19905;53.370;-6.314;2023-03-15T10:01:55;7.07;;;1.90;;
29934;SDS011;19905;53.370;-6.314;2023-03-15T10:04:27;9.02;;;2.20;;
29934;SDS011;19905;53.370;-6.314;2023-03-15T10:06:57;5.95;;;1.98;;
29934;SDS011;19905;53.370;-6.314;2023-03-15T10:09:29;7.65;;;1.75;;
29934;SDS011;19905;53.370;-6.314;2023-03-15T10:12:03;6.68;;;1.80;;
29934;SDS011;19905;53.370;-6.314;2023-03-15T10:14:46;4.40;;;1.55;;
29934;SDS011;19905;53.370;-6.314;2023-03-15T10:17:34;4.68;;;1.65;;
29934;SDS011;19905;53.370;-6.314;2023-03-15T10:20:10;6.22;;;1.80;;
29934;SDS011;19905;53.370;-6.314;2023-03-15T10:22:46;6.03;;;1.98;;
29934;SDS011;19905;53.370;-6.314;2023-03-15T10:25:22;6.82;;;1.85;;
29934;SDS011;19905;53.370;-6.314;2023-03-15T10:27:53;7.30;;;2.00;;
29934;SDS011;19905;53.370;-6.314;2023-03-15T10:30:26;8.63;;;1.73;;
29934;SDS011;19905;53.370;-6.314;2023-03-15T10:32:59;6.75;;;1.70;;
29934;SDS011;19905;53.370;-6.314;2023-03-15T10:35:31;4.40;;;2.00;;
29934;SDS011;19905;53.370;-6.314;2023-03-15T10:38:00;4.45;;;1.70;;
29934;SDS011;19905;53.370;-6.314;2023-03-15T10:40:39;6.18;;;1.98;;
29934;SDS011;19905;53.370;-6.314;2023-03-15T10:43:17;4.40;;;1.90;;
29934;SDS011;19905;53.370;-6.314;2023-03-15T10:45:58;7.13;;;1.90;;
29934;SDS011;19905;53.370;-6.314;2023-03-15T10:48:31;5.90;;;1.92;;
29934;SDS011;19905;53.370;-6.314;2023-03-15T10:51:02;7.50;;;2.15;;
29934;SDS011;19905;53.370;-6.314;2023-03-15T10:53:33;8.20;;;1.70;;
29934;SDS011;19905;53.370;-6.314;2023-03-15T10:56:04;5.10;;;1.75;;
29934;SDS011;19905;53.370;-6.314;2023-03-15T10:58:39;8.85;;;2.08;;
29934;SDS011;19905;53.370;-6.314;2023-03-15T11:01:22;5.18;;;1.95;;
29934;SDS011;19905;53.370;-6.314;2023-03-15T11:04:05;5.13;;;1.65;;
29934;SDS011;19905;53.370;-6.314;2023-03-15T11:06:43;7.57;;;1.95;;
29934;SDS011;19905;53.370;-6.314;2023-03-15T11:09:15;3.28;;;1.48;;
29934;SDS011;19905;53.370;-6.314;2023-03-15T11:11:56;7.28;;;2.00;;
29934;SDS011;19905;53.370;-6.314;2023-03-15T11:14:31;7.22;;;1.80;;
29934;SDS011;19905;53.370;-6.314;2023-03-15T11:17:02;4.53;;;1.73;;
29934;SDS011;19905;53.370;-6.314;2023-03-15T11:19:35;4.68;;;1.70;;
29934;SDS011;19905;53.370;-6.314;2023-03-15T11:22:10;3.30;;;1.65;;
29934;SDS011;19905;53.370;-6.314;2023-03-15T11:24:41;2.92;;;1.60;;
29934;SDS011;19905;53.370;-6.314;2023-03-15T11:27:10;3.75;;;1.30;;
29934;SDS011;19905;53.370;-6.314;2023-03-15T11:29:42;5.47;;;1.67;;
29934;SDS011;19905;53.370;-6.314;2023-03-15T11:32:15;7.47;;;1.73;;
29934;SDS011;19905;53.370;-6.314;2023-03-15T11:34:54;6.20;;;1.60;;
29934;SDS011;19905;53.370;-6.314;2023-03-15T11:37:29;5.95;;;1.45;;
29934;SDS011;19905;53.370;-6.314;2023-03-15T11:40:08;6.40;;;1.67;;
29934;SDS011;19905;53.370;-6.314;2023-03-15T11:42:44;5.82;;;1.65;;
29934;SDS011;19905;53.370;-6.314;2023-03-15T11:45:18;3.97;;;1.50;;
29934;SDS011;19905;53.370;-6.314;2023-03-15T11:47:52;5.50;;;1.60;;
29934;SDS011;19905;53.370;-6.314;2023-03-15T11:50:25;3.30;;;1.70;;
29934;SDS011;19905;53.370;-6.314;2023-03-15T11:52:53;6.53;;;1.98;;
29934;SDS011;19905;53.370;-6.314;2023-03-15T11:55:28;7.70;;;1.67;;
29934;SDS011;19905;53.370;-6.314;2023-03-15T11:58:25;5.93;;;1.80;;
29934;SDS011;19905;53.370;-6.314;2023-03-15T12:00:59;5.40;;;1.70;;
29934;SDS011;19905;53.370;-6.314;2023-03-15T12:03:34;5.25;;;1.60;;
29934;SDS011;19905;53.370;-6.314;2023-03-15T12:12:33;6.03;;;2.20;;
29934;SDS011;19905;53.370;-6.314;2023-03-15T12:15:42;5.68;;;1.55;;
29934;SDS011;19905;53.370;-6.314;2023-03-15T12:18:19;4.90;;;1.77;;
29934;SDS011;19905;53.370;-6.314;2023-03-15T12:21:10;2.95;;;1.38;;
29934;SDS011;19905;53.370;-6.314;2023-03-15T12:23:43;5.60;;;1.48;;
29934;SDS011;19905;53.370;-6.314;2023-03-15T12:26:21;3.80;;;1.00;;
29934;SDS011;19905;53.370;-6.314;2023-03-15T12:31:45;4.47;;;1.60;;
29934;SDS011;19905;53.370;-6.314;2023-03-15T12:34:23;3.00;;;1.27;;
29934;SDS011;19905;53.370;-6.314;2023-03-15T12:36:59;8.15;;;1.88;;
29934;SDS011;19905;53.370;-6.314;2023-03-15T12:39:37;5.30;;;1.58;;
29934;SDS011;19905;53.370;-6.314;2023-03-15T12:51:03;4.57;;;1.30;;
29934;SDS011;19905;53.370;-6.314;2023-03-15T12:53:42;5.18;;;1.33;;
29934;SDS011;19905;53.370;-6.314;2023-03-15T12:56:29;6.05;;;1.33;;
29934;SDS011;19905;53.370;-6.314;2023-03-15T12:59:19;5.15;;;1.27;;
29934;SDS011;19905;53.370;-6.314;2023-03-15T13:01:54;8.57;;;1.45;;
29934;SDS011;19905;53.370;-6.314;2023-03-15T13:04:26;7.80;;;1.27;;
29934;SDS011;19905;53.370;-6.314;2023-03-15T13:07:08;4.03;;;1.30;;
29934;SDS011;19905;53.370;-6.314;2023-03-15T13:12:46;4.30;;;1.88;;
29934;SDS011;19905;53.370;-6.314;2023-03-15T13:15:22;6.22;;;2.00;;
29934;SDS011;19905;53.370;-6.314;2023-03-15T13:17:55;5.95;;;1.90;;
29934;SDS011;19905;53.370;-6.314;2023-03-15T13:20:35;4.32;;;1.02;;
29934;SDS011;19905;53.370;-6.314;2023-03-15T13:23:12;4.70;;;2.00;;
29934;SDS011;19905;53.370;-6.314;2023-03-15T13:25:56;3.63;;;1.80;;
29934;SDS011;19905;53.370;-6.314;2023-03-15T13:28:37;5.03;;;2.03;;
29934;SDS011;19905;53.370;-6.314;2023-03-15T13:31:11;5.50;;;1.92;;
29934;SDS011;19905;53.370;-6.314;2023-03-15T13:33:45;6.07;;;1.50;;
29934;SDS011;19905;53.370;-6.314;2023-03-15T13:36:17;5.38;;;1.50;;
29934;SDS011;19905;53.370;-6.314;2023-03-15T13:38:49;5.00;;;1.30;;
29934;SDS011;19905;53.370;-6.314;2023-03-15T13:41:19;4.13;;;1.20;;
29934;SDS011;19905;53.370;-6.314;2023-03-15T13:43:50;6.55;;;1.38;;
29934;SDS011;19905;53.370;-6.314;2023-03-15T13:46:21;5.10;;;1.60;;
29934;SDS011;19905;53.370;-6.314;2023-03-15T13:48:53;4.68;;;1.42;;
29934;SDS011;19905;53.370;-6.314;2023-03-15T13:51:25;5.22;;;1.70;;
29934;SDS011;19905;53.370;-6.314;2023-03-15T13:53:59;3.63;;;1.40;;
29934;SDS011;19905;53.370;-6.314;2023-03-15T13:56:33;3.90;;;1.30;;
29934;SDS011;19905;53.370;-6.314;2023-03-15T13:59:15;4.90;;;1.63;;
29934;SDS011;19905;53.370;-6.314;2023-03-15T14:01:45;7.63;;;1.95;;
29934;SDS011;19905;53.370;-6.314;2023-03-15T14:04:14;6.45;;;1.50;;
29934;SDS011;19905;53.370;-6.314;2023-03-15T14:06:46;5.60;;;1.70;;
29934;SDS011;19905;53.370;-6.314;2023-03-15T14:09:17;4.97;;;1.40;;
29934;SDS011;19905;53.370;-6.314;2023-03-15T14:12:01;5.55;;;1.67;;
29934;SDS011;19905;53.370;-6.314;2023-03-15T14:14:34;6.15;;;1.70;;
29934;SDS011;19905;53.370;-6.314;2023-03-15T14:17:06;8.40;;;2.13;;
29934;SDS011;19905;53.370;-6.314;2023-03-15T14:19:50;3.97;;;1.40;;
29934;SDS011;19905;53.370;-6.314;2023-03-15T14:22:22;5.43;;;1.60;;
29934;SDS011;19905;53.370;-6.314;2023-03-15T14:24:52;4.53;;;1.33;;
29934;SDS011;19905;53.370;-6.314;2023-03-15T14:27:23;6.95;;;1.20;;
29934;SDS011;19905;53.370;-6.314;2023-03-15T14:29:54;4.78;;;1.63;;
29934;SDS011;19905;53.370;-6.314;2023-03-15T14:32:27;6.15;;;1.83;;
29934;SDS011;19905;53.370;-6.314;2023-03-15T14:34:58;8.07;;;2.00;;
29934;SDS011;19905;53.370;-6.314;2023-03-15T14:37:34;6.13;;;2.20;;
29934;SDS011;19905;53.370;-6.314;2023-03-15T14:40:06;4.97;;;1.67;;
29934;SDS011;19905;53.370;-6.314;2023-03-15T14:42:42;6.05;;;2.15;;
29934;SDS011;19905;53.370;-6.314;2023-03-15T14:45:12;7.32;;;1.80;;
29934;SDS011;19905;53.370;-6.314;2023-03-15T14:47:41;7.82;;;2.20;;
29934;SDS011;19905;53.370;-6.314;2023-03-15T14:50:22;7.95;;;2.25;;
29934;SDS011;19905;53.370;-6.314;2023-03-15T14:52:55;5.90;;;2.42;;
29934;SDS011;19905;53.370;-6.314;2023-03-15T14:55:27;10.10;;;2.33;;
29934;SDS011;19905;53.370;-6.314;2023-03-15T14:58:00;6.75;;;2.10;;
29934;SDS011;19905;53.370;-6.314;2023-03-15T15:00:29;6.22;;;1.75;;
29934;SDS011;19905;53.370;-6.314;2023-03-15T15:03:00;5.82;;;2.20;;
29934;SDS011;19905;53.370;-6.314;2023-03-15T15:05:32;8.25;;;2.15;;
29934;SDS011;19905;53.370;-6.314;2023-03-15T15:08:04;6.07;;;1.95;;
29934;SDS011;19905;53.370;-6.314;2023-03-15T15:10:38;6.68;;;2.20;;
29934;SDS011;19905;53.370;-6.314;2023-03-15T15:13:11;6.53;;;2.40;;
29934;SDS011;19905;53.370;-6.314;2023-03-15T15:15:45;4.28;;;2.17;;
29934;SDS011;19905;53.370;-6.314;2023-03-15T15:18:21;4.72;;;2.45;;
29934;SDS011;19905;53.370;-6.314;2023-03-15T15:20:51;5.43;;;1.90;;
29934;SDS011;19905;53.370;-6.314;2023-03-15T15:23:23;3.78;;;1.70;;
29934;SDS011;19905;53.370;-6.314;2023-03-15T15:25:55;4.55;;;1.65;;
29934;SDS011;19905;53.370;-6.314;2023-03-15T15:28:25;6.18;;;1.80;;
29934;SDS011;19905;53.370;-6.314;2023-03-15T15:31:02;4.90;;;1.60;;
29934;SDS011;19905;53.370;-6.314;2023-03-15T15:33:32;5.70;;;2.13;;
29934;SDS011;19905;53.370;-6.314;2023-03-15T15:36:01;7.68;;;3.15;;
29934;SDS011;19905;53.370;-6.314;2023-03-15T15:38:32;7.95;;;3.03;;